createdAt,value
2018-11-11T00:00:25.071Z,95455.70
2018-11-11T00:02:54.873Z,95454.92
2018-11-11T00:05:24.198Z,95455.59
2018-11-11T00:07:53.117Z,95461.98
2018-11-11T00:10:21.964Z,95462.74
2018-11-11T00:12:51.211Z,95466.61
2018-11-11T00:15:21.255Z,95466.77
2018-11-11T00:17:50.126Z,95469.75
2018-11-11T00:20:19.397Z,95457.04
2018-11-11T00:22:48.255Z,95468.50
2018-11-11T00:25:17.106Z,95473.92
2018-11-11T00:27:46.311Z,95469.98
2018-11-11T00:30:16.500Z,95466.84
2018-11-11T00:32:45.389Z,95474.55
2018-11-11T00:35:14.275Z,95472.46
2018-11-11T00:37:43.587Z,95477.56
2018-11-11T00:40:14.682Z,95474.14
2018-11-11T00:42:43.599Z,95468.59
2018-11-11T00:45:14.111Z,95469.92
2018-11-11T00:47:43.990Z,95469.39
2018-11-11T00:50:13.295Z,95470.55
2018-11-11T00:52:42.193Z,95467.61
2018-11-11T00:55:13.533Z,95466.25
2018-11-11T00:57:43.684Z,95462.79
2018-11-11T01:00:14.071Z,95465.48
2018-11-11T01:02:43.800Z,95457.55
2018-11-11T01:05:13.719Z,95459.15
2018-11-11T01:07:43.134Z,95461.84
2018-11-11T01:10:14.810Z,95461.62
2018-11-11T01:12:44.092Z,95457.89
2018-11-11T01:15:15.034Z,95450.50
2018-11-11T01:17:44.642Z,95458.02
2018-11-11T01:20:17.274Z,95465.24
2018-11-11T01:22:46.942Z,95461.78
2018-11-11T01:25:16.937Z,95470.34
2018-11-11T01:27:45.750Z,95467.13
2018-11-11T01:30:14.662Z,95457.85
2018-11-11T01:32:44.301Z,95442.95
2018-11-11T01:35:14.718Z,95445.06
2018-11-11T01:37:44.003Z,95450.37
2018-11-11T01:40:12.994Z,95481.75
2018-11-11T01:42:41.923Z,95472.69
2018-11-11T01:45:15.061Z,95474.45
2018-11-11T01:47:44.380Z,95466.94
2018-11-11T01:50:13.606Z,95471.91
2018-11-11T01:52:44.170Z,95484.39
2018-11-11T01:55:14.288Z,95493.69
2018-11-11T01:57:43.155Z,95495.78
2018-11-11T02:00:18.724Z,95488.34
2018-11-11T02:02:49.038Z,95493.82
2018-11-11T02:05:17.907Z,95482.84
2018-11-11T02:07:49.270Z,95491.34
2018-11-11T02:10:18.853Z,95481.80
2018-11-11T02:12:47.811Z,95479.66
2018-11-11T02:15:18.377Z,95479.95
2018-11-11T02:17:47.529Z,95493.74
2018-11-11T02:20:17.466Z,95497.97
2018-11-11T02:22:47.206Z,95498.77
2018-11-11T02:25:16.467Z,95488.16
2018-11-11T02:27:45.522Z,95492.66
2018-11-11T02:30:15.694Z,95503.81
2018-11-11T02:32:44.953Z,95507.55
2018-11-11T02:35:14.189Z,95496.41
2018-11-11T02:37:43.426Z,95504.13
2018-11-11T02:40:14.412Z,95504.97
2018-11-11T02:42:43.444Z,95507.14
2018-11-11T02:45:13.495Z,95500.33
2018-11-11T02:47:42.354Z,95499.52
2018-11-11T02:50:13.591Z,95505.64
2018-11-11T02:52:43.359Z,95513.37
2018-11-11T02:55:12.719Z,95514.97
2018-11-11T02:57:42.730Z,95534.09
2018-11-11T03:00:20.138Z,95525.05
2018-11-11T03:02:49.290Z,95513.92
2018-11-11T03:05:18.869Z,95530.39
2018-11-11T03:07:47.735Z,95530.18
2018-11-11T03:10:19.209Z,95533.37
2018-11-11T03:12:49.136Z,95527.00
2018-11-11T03:15:18.310Z,95536.90
2018-11-11T03:17:47.471Z,95541.16
2018-11-11T03:20:16.830Z,95538.23
2018-11-11T03:22:45.765Z,95540.40
2018-11-11T03:25:16.034Z,95539.91
2018-11-11T03:27:45.561Z,95562.22
2018-11-11T03:30:21.139Z,95573.66
2018-11-11T03:32:49.989Z,95568.86
2018-11-11T03:35:19.219Z,95577.40
2018-11-11T03:37:48.714Z,95579.28
2018-11-11T03:40:19.106Z,95577.40
2018-11-11T03:42:48.337Z,95578.20
2018-11-11T03:45:18.433Z,95582.72
2018-11-11T03:47:48.339Z,95583.00
2018-11-11T03:50:17.235Z,95590.20
2018-11-11T03:52:46.856Z,95593.94
2018-11-11T03:55:15.758Z,95597.93
2018-11-11T03:57:44.601Z,95602.48
2018-11-11T04:00:14.804Z,95605.94
2018-11-11T04:02:45.035Z,95609.16
2018-11-11T04:05:15.286Z,95597.48
2018-11-11T04:07:44.214Z,95599.16
2018-11-11T04:10:15.784Z,95590.10
2018-11-11T04:12:44.976Z,95598.91
2018-11-11T04:15:15.735Z,95589.09
2018-11-11T04:17:44.656Z,95592.58
2018-11-11T04:20:14.794Z,95591.53
2018-11-11T04:22:43.654Z,95596.05
2018-11-11T04:25:13.249Z,95584.88
2018-11-11T04:27:42.076Z,95585.44
2018-11-11T04:30:12.058Z,95577.49
2018-11-11T04:32:41.355Z,95581.77
2018-11-11T04:35:10.674Z,95579.10
2018-11-11T04:37:39.550Z,95582.56
2018-11-11T04:40:10.824Z,95581.52
2018-11-11T04:42:39.669Z,95579.91
2018-11-11T04:45:11.198Z,95573.53
2018-11-11T04:47:40.067Z,95568.46
2018-11-11T04:50:11.266Z,95562.87
2018-11-11T04:52:40.114Z,95558.88
2018-11-11T04:55:09.542Z,95550.90
2018-11-11T04:57:39.538Z,95553.77
2018-11-11T05:00:09.870Z,95547.13
2018-11-11T05:02:39.596Z,95530.89
2018-11-11T05:05:11.442Z,95526.37
2018-11-11T05:10:20.464Z,95524.25
2018-11-11T05:12:49.613Z,95523.97
2018-11-11T05:15:18.446Z,95521.84
2018-11-11T05:17:47.992Z,95529.56
2018-11-11T05:20:16.878Z,95520.25
2018-11-11T05:22:47.291Z,95525.08
2018-11-11T05:25:16.437Z,95526.16
2018-11-11T05:27:45.609Z,95542.39
2018-11-11T05:30:15.088Z,95540.30
2018-11-11T05:32:44.057Z,95549.08
2018-11-11T05:35:13.304Z,95554.95
2018-11-11T05:37:42.984Z,95560.80
2018-11-11T05:40:12.791Z,95565.31
2018-11-11T05:42:42.843Z,95573.02
2018-11-11T05:45:12.988Z,95561.88
2018-11-11T05:47:42.531Z,95562.18
2018-11-11T05:50:15.598Z,95564.87
2018-11-11T05:52:46.043Z,95565.45
2018-11-11T05:55:20.729Z,95564.13
2018-11-11T05:57:49.541Z,95555.62
2018-11-11T06:00:18.942Z,95558.30
2018-11-11T06:02:47.768Z,95562.60
2018-11-11T06:05:17.532Z,95561.80
2018-11-11T06:07:46.344Z,95570.05
2018-11-11T06:10:15.731Z,95575.66
2018-11-11T06:12:44.635Z,95576.16
2018-11-11T06:15:14.464Z,95579.59
2018-11-11T06:17:44.393Z,95571.61
2018-11-11T06:20:15.108Z,95564.18
2018-11-11T06:22:43.968Z,95569.25
2018-11-11T06:25:13.238Z,95566.06
2018-11-11T06:27:42.114Z,95561.80
2018-11-11T06:30:11.659Z,95572.19
2018-11-11T06:32:40.499Z,95568.73
2018-11-11T06:35:09.442Z,95567.64
2018-11-11T06:37:38.903Z,95554.59
2018-11-11T06:40:09.460Z,95554.56
2018-11-11T06:42:39.908Z,95559.86
2018-11-11T06:45:10.553Z,95560.41
2018-11-11T06:47:40.357Z,95560.38
2018-11-11T06:50:10.352Z,95555.59
2018-11-11T06:52:39.894Z,95557.73
2018-11-11T06:55:09.001Z,95564.63
2018-11-11T06:57:38.399Z,95563.60
2018-11-11T07:00:08.816Z,95562.27
2018-11-11T07:02:40.361Z,95563.32
2018-11-11T07:05:10.290Z,95560.97
2018-11-11T07:07:40.321Z,95558.52
2018-11-11T07:10:09.152Z,95550.55
2018-11-11T07:12:38.005Z,95541.20
2018-11-11T07:15:07.331Z,95537.47
2018-11-11T07:17:36.179Z,95547.03
2018-11-11T07:20:05.635Z,95558.72
2018-11-11T07:22:36.374Z,95548.61
2018-11-11T07:25:07.002Z,95551.55
2018-11-11T07:27:36.106Z,95553.15
2018-11-11T07:30:05.855Z,95550.27
2018-11-11T07:32:34.683Z,95559.11
2018-11-11T07:35:04.290Z,95551.73
2018-11-11T07:37:34.553Z,95568.81
2018-11-11T07:40:04.085Z,95578.17
2018-11-11T07:42:33.305Z,95571.02
2018-11-11T07:45:03.284Z,95579.05
2018-11-11T07:47:33.076Z,95564.98
2018-11-11T07:50:01.931Z,95558.09
2018-11-11T07:52:30.778Z,95552.01
2018-11-11T07:55:00.557Z,95558.17
2018-11-11T07:57:29.367Z,95559.27
2018-11-11T07:59:59.039Z,95561.72
2018-11-11T08:02:27.882Z,95549.20
2018-11-11T08:04:57.322Z,95533.00
2018-11-11T08:07:28.291Z,95538.86
2018-11-11T08:09:57.560Z,95536.45
2018-11-11T08:12:26.427Z,95552.45
2018-11-11T08:14:57.730Z,95568.45
2018-11-11T08:17:30.490Z,95566.38
2018-11-11T08:20:00.923Z,95572.77
2018-11-11T08:22:30.770Z,95573.61
2018-11-11T08:25:00.459Z,95584.34
2018-11-11T08:27:29.330Z,95584.38
2018-11-11T08:29:58.731Z,95593.23
2018-11-11T08:32:27.725Z,95587.14
2018-11-11T08:34:56.460Z,95589.31
2018-11-11T08:37:25.782Z,95590.66
2018-11-11T08:39:55.581Z,95605.36
2018-11-11T08:42:24.439Z,95617.09
2018-11-11T08:44:55.008Z,95620.55
2018-11-11T08:47:23.868Z,95633.37
2018-11-11T08:49:52.719Z,95629.09
2018-11-11T08:52:22.137Z,95631.48
2018-11-11T08:54:51.842Z,95654.97
2018-11-11T08:57:20.838Z,95658.95
2018-11-11T08:59:52.102Z,95679.76
2018-11-11T09:02:21.975Z,95680.80
2018-11-11T09:04:52.773Z,95692.03
2018-11-11T09:07:21.799Z,95704.38
2018-11-11T09:09:50.658Z,95711.84
2018-11-11T09:12:24.289Z,95718.56
2018-11-11T09:14:54.330Z,95726.63
2018-11-11T09:17:27.237Z,95736.00
2018-11-11T09:20:02.608Z,95733.34
2018-11-11T09:22:32.155Z,95736.57
2018-11-11T09:25:00.992Z,95730.12
2018-11-11T09:27:30.179Z,95732.76
2018-11-11T09:29:59.741Z,95733.03
2018-11-11T09:32:29.670Z,95723.34
2018-11-11T09:34:58.630Z,95717.75
2018-11-11T09:37:27.886Z,95717.78
2018-11-11T09:39:57.174Z,95730.35
2018-11-11T09:42:27.939Z,95725.03
2018-11-11T09:44:57.683Z,95723.42
2018-11-11T09:47:29.271Z,95727.19
2018-11-11T09:49:58.318Z,95737.88
2018-11-11T09:52:28.128Z,95743.50
2018-11-11T09:54:59.427Z,95739.73
2018-11-11T09:57:28.658Z,95747.78
2018-11-11T09:59:58.249Z,95742.97
2018-11-11T10:02:27.264Z,95749.11
2018-11-11T10:05:06.951Z,95752.86
2018-11-11T10:07:50.892Z,95762.74
2018-11-11T10:10:27.058Z,95765.94
2018-11-11T10:15:05.658Z,95777.98
2018-11-11T10:17:40.851Z,95792.14
2018-11-11T10:21:23.314Z,95785.73
2018-11-11T10:24:12.375Z,95794.84
2018-11-11T10:26:53.402Z,95809.30
2018-11-11T10:29:30.909Z,95808.20
2018-11-11T10:32:14.664Z,95802.86
2018-11-11T10:34:49.040Z,95787.09
2018-11-11T10:37:56.580Z,95789.50
2018-11-11T10:40:34.114Z,95787.06
2018-11-11T10:43:10.112Z,95784.89
2018-11-11T10:45:43.918Z,95778.41
2018-11-11T10:48:15.089Z,95775.12
2018-11-11T10:50:53.483Z,95775.73
2018-11-11T10:53:26.468Z,95783.44
2018-11-11T10:55:56.240Z,95775.91
2018-11-11T10:58:27.424Z,95780.41
2018-11-11T11:01:02.003Z,95781.12
2018-11-11T11:03:31.603Z,95773.97
2018-11-11T11:06:03.492Z,95762.78
2018-11-11T11:08:32.651Z,95762.16
2018-11-11T11:11:01.506Z,95759.62
2018-11-11T11:13:33.728Z,95772.92
2018-11-11T11:16:03.896Z,95778.16
2018-11-11T11:18:33.589Z,95777.20
2018-11-11T11:21:15.097Z,95774.78
2018-11-11T11:23:44.842Z,95779.80
2018-11-11T11:26:14.282Z,95777.61
2018-11-11T11:28:46.157Z,95772.52
2018-11-11T11:37:21.771Z,95776.11
2018-11-11T11:39:51.233Z,95767.99
2018-11-11T11:42:21.386Z,95766.79
2018-11-11T11:44:51.827Z,95765.47
2018-11-11T11:47:26.735Z,95759.83
2018-11-11T11:49:56.732Z,95755.05
2018-11-11T11:52:30.044Z,95759.28
2018-11-11T11:55:01.235Z,95768.13
2018-11-11T11:57:31.664Z,95779.88
2018-11-11T12:00:00.619Z,95769.47
2018-11-11T12:02:33.180Z,95768.13
2018-11-11T12:05:02.792Z,95758.74
2018-11-11T12:07:37.951Z,95740.77
2018-11-11T12:10:10.569Z,95746.58
2018-11-11T12:12:40.568Z,95739.80
2018-11-11T12:15:11.201Z,95733.48
2018-11-11T12:17:52.211Z,95742.58
2018-11-11T12:20:24.116Z,95749.64
2018-11-11T12:22:53.440Z,95752.58
2018-11-11T12:25:25.679Z,95758.48
2018-11-11T12:27:55.650Z,95758.59
2018-11-11T12:30:27.762Z,95759.00
2018-11-11T12:32:57.697Z,95762.86
2018-11-11T12:35:27.402Z,95755.26
2018-11-11T12:37:58.405Z,95753.81
2018-11-11T12:40:28.199Z,95746.74
2018-11-11T12:42:59.775Z,95747.64
2018-11-11T12:45:31.709Z,95762.44
2018-11-11T12:48:00.553Z,95764.66
2018-11-11T12:50:35.934Z,95765.48
2018-11-11T12:53:07.013Z,95767.60
2018-11-11T12:55:41.227Z,95770.83
2018-11-11T12:58:10.403Z,95778.88
2018-11-11T13:00:42.197Z,95781.86
2018-11-11T13:03:13.720Z,95781.93
2018-11-11T13:05:48.671Z,95769.84
2018-11-11T13:08:23.955Z,95773.41
2018-11-11T13:10:55.052Z,95773.46
2018-11-11T13:13:25.223Z,95775.92
2018-11-11T13:15:54.108Z,95774.08
2018-11-11T13:18:26.043Z,95773.61
2018-11-11T13:20:56.401Z,95779.00
2018-11-11T13:23:38.056Z,95777.19
2018-11-11T13:26:09.093Z,95773.98
2018-11-11T13:28:39.180Z,95781.23
2018-11-11T13:31:10.543Z,95787.17
2018-11-11T13:33:39.474Z,95781.82
2018-11-11T13:36:09.254Z,95788.27
2018-11-11T13:38:40.763Z,95783.17
2018-11-11T13:41:12.794Z,95784.78
2018-11-11T13:43:45.391Z,95787.47
2018-11-11T13:46:14.394Z,95788.61
2018-11-11T13:48:48.999Z,95793.77
2018-11-11T13:53:55.277Z,95783.41
2018-11-11T13:56:24.504Z,95792.02
2018-11-11T13:58:55.303Z,95792.03
2018-11-11T14:01:26.386Z,95794.45
2018-11-11T14:03:57.108Z,95802.81
2018-11-11T14:06:27.336Z,95814.37
2018-11-11T14:08:56.613Z,95814.38
2018-11-11T14:11:26.377Z,95827.23
2018-11-11T14:13:58.510Z,95833.44
2018-11-11T14:16:30.482Z,95845.77
2018-11-11T14:18:59.821Z,95853.03
2018-11-11T14:21:28.466Z,95858.69
2018-11-11T14:23:57.373Z,95858.98
2018-11-11T14:26:33.825Z,95866.20
2018-11-11T14:29:04.368Z,95856.86
2018-11-11T14:31:35.813Z,95866.52
2018-11-11T14:34:06.475Z,95859.30
2018-11-11T14:36:35.819Z,95864.66
2018-11-11T14:39:07.373Z,95860.11
2018-11-11T14:41:36.198Z,95860.92
2018-11-11T14:47:52.156Z,95868.93
2018-11-11T14:50:23.571Z,95876.67
2018-11-11T14:52:54.878Z,95882.52
2018-11-11T14:55:26.068Z,95892.66
2018-11-11T14:57:56.041Z,95892.37
2018-11-11T15:00:34.445Z,95887.02
2018-11-11T15:03:48.184Z,95891.02
2018-11-11T15:06:17.468Z,95895.81
2018-11-11T15:08:52.723Z,95895.50
2018-11-11T15:11:25.475Z,95897.64
2018-11-11T15:13:55.637Z,95892.27
2018-11-11T15:16:26.142Z,95892.23
2018-11-11T15:18:55.040Z,95895.69
2018-11-11T15:21:24.735Z,95891.11
2018-11-11T15:23:58.794Z,95898.56
2018-11-11T15:26:28.312Z,95895.88
2018-11-11T15:28:58.010Z,95890.27
2018-11-11T15:31:27.068Z,95898.21
2018-11-11T15:34:01.470Z,95905.67
2018-11-11T15:36:30.421Z,95901.09
2018-11-11T15:38:59.327Z,95909.09
2018-11-11T15:41:28.983Z,95905.87
2018-11-11T15:43:59.663Z,95917.34
2018-11-11T15:46:31.347Z,95920.55
2018-11-11T15:49:00.196Z,95918.13
2018-11-11T15:51:31.502Z,95913.03
2018-11-11T15:54:01.704Z,95909.78
2018-11-11T15:56:31.478Z,95912.97
2018-11-11T15:59:06.304Z,95906.31
2018-11-11T16:01:36.567Z,95902.55
2018-11-11T16:04:09.300Z,95906.78
2018-11-11T16:13:05.335Z,95897.70
2018-11-11T16:15:45.602Z,95895.03
2018-11-11T16:18:55.457Z,95911.34
2018-11-11T16:22:02.546Z,95919.32
2018-11-11T16:24:31.663Z,95921.47
2018-11-11T16:27:01.274Z,95922.47
2018-11-11T16:29:39.465Z,95924.55
2018-11-11T16:32:08.346Z,95925.02
2018-11-11T16:34:38.346Z,95922.08
2018-11-11T16:37:08.304Z,95925.86
2018-11-11T16:39:37.422Z,95921.83
2018-11-11T16:42:24.047Z,95926.05
2018-11-11T16:44:53.422Z,95934.05
2018-11-11T16:47:22.479Z,95936.44
2018-11-11T16:49:51.643Z,95941.50
2018-11-11T16:52:24.133Z,95943.08
2018-11-11T16:54:53.327Z,95942.52
2018-11-11T16:57:24.674Z,95942.27
2018-11-11T16:59:55.502Z,95936.41
2018-11-11T17:02:31.286Z,95941.19
2018-11-11T17:05:00.329Z,95940.66
2018-11-11T17:07:29.863Z,95934.80
2018-11-11T17:10:00.160Z,95947.08
2018-11-11T17:12:28.993Z,95956.10
2018-11-11T17:14:57.849Z,95957.93
2018-11-11T17:17:29.790Z,95963.82
2018-11-11T17:19:59.374Z,95970.49
2018-11-11T17:22:28.324Z,95974.14
2018-11-11T17:24:58.707Z,95971.97
2018-11-11T17:27:30.395Z,95970.64
2018-11-11T17:30:00.867Z,95967.23
2018-11-11T17:32:32.151Z,95976.25
2018-11-11T17:35:05.224Z,95976.59
2018-11-11T17:37:40.473Z,95973.97
2018-11-11T17:40:12.607Z,95983.79
2018-11-11T17:42:42.634Z,95991.02
2018-11-11T17:45:13.380Z,96004.56
2018-11-11T17:47:45.408Z,95996.52
2018-11-11T17:52:57.190Z,96002.17
2018-11-11T17:55:28.433Z,95996.84
2018-11-11T17:57:58.983Z,96002.48
2018-11-11T18:00:38.796Z,96008.88
2018-11-11T18:03:27.262Z,96013.41
2018-11-11T18:05:57.330Z,96014.80
2018-11-11T18:08:28.260Z,96019.61
2018-11-11T18:10:58.312Z,96019.34
2018-11-11T18:13:28.088Z,96020.34
2018-11-11T18:16:04.931Z,96011.02
2018-11-11T18:18:35.615Z,96003.82
2018-11-11T18:21:09.592Z,96012.03
2018-11-11T18:23:44.971Z,96006.98
2018-11-11T18:26:14.000Z,96007.02
2018-11-11T18:28:44.973Z,96006.77
2018-11-11T18:31:15.072Z,96003.36
2018-11-11T18:33:44.433Z,95996.17
2018-11-11T18:36:13.687Z,95993.23
2018-11-11T18:38:42.611Z,95990.63
2018-11-11T18:41:11.614Z,95993.85
2018-11-11T18:43:40.501Z,95990.94
2018-11-11T18:46:10.798Z,95995.25
2018-11-11T18:48:39.741Z,95998.41
2018-11-11T18:51:12.801Z,96004.68
2018-11-11T18:53:44.310Z,96018.58
2018-11-11T18:56:13.156Z,96019.11
2018-11-11T18:58:45.499Z,96019.72
2018-11-11T19:07:24.970Z,96016.28
2018-11-11T19:09:57.419Z,96006.94
2018-11-11T19:12:26.694Z,96001.32
2018-11-11T19:14:58.324Z,95999.43
2018-11-11T19:17:29.874Z,96006.91
2018-11-11T19:20:01.195Z,96013.55
2018-11-11T19:23:34.379Z,96010.08
2018-11-11T19:26:03.878Z,96005.77
2018-11-11T19:28:33.090Z,96013.52
2018-11-11T19:31:01.965Z,96012.16
2018-11-11T19:33:30.833Z,96019.60
2018-11-11T19:35:59.723Z,96031.30
2018-11-11T19:38:29.613Z,96030.73
2018-11-11T19:40:59.029Z,96030.73
2018-11-11T19:43:30.397Z,96033.16
2018-11-11T19:46:00.587Z,96032.10
2018-11-11T19:48:32.092Z,96025.68
2018-11-11T19:51:05.676Z,96022.70
2018-11-11T19:53:35.083Z,96026.42
2018-11-11T19:56:06.232Z,96029.86
2018-11-11T19:58:35.815Z,96028.25
2018-11-11T20:01:07.361Z,96022.70
2018-11-11T20:03:39.556Z,96033.61
2018-11-11T20:08:48.053Z,96036.11
2018-11-11T20:11:17.911Z,96042.59
2018-11-11T20:13:46.948Z,96038.66
2018-11-11T20:16:16.351Z,96042.66
2018-11-11T20:18:46.439Z,96045.36
2018-11-11T20:21:17.321Z,96050.06
2018-11-11T20:23:46.219Z,96052.67
2018-11-11T20:26:16.932Z,96047.41
2018-11-11T20:28:47.077Z,96050.50
2018-11-11T20:31:18.123Z,96047.02
2018-11-11T20:33:47.194Z,96041.90
2018-11-11T20:36:16.664Z,96045.87
2018-11-11T20:38:47.970Z,96050.67
2018-11-11T20:41:19.390Z,96038.63
2018-11-11T20:43:55.150Z,96039.16
2018-11-11T20:46:27.611Z,96045.87
2018-11-11T20:48:57.999Z,96042.73
2018-11-11T20:51:30.843Z,96029.96
2018-11-11T20:56:40.855Z,96024.44
2018-11-11T20:59:11.942Z,96035.67
2018-11-11T21:01:45.580Z,96031.67
2018-11-11T21:04:17.431Z,96026.83
2018-11-11T21:06:49.025Z,96030.27
2018-11-11T21:09:27.102Z,96023.30
2018-11-11T21:11:59.148Z,96025.44
2018-11-11T21:14:29.365Z,96018.80
2018-11-11T21:17:03.200Z,96020.91
2018-11-11T21:19:42.080Z,96023.11
2018-11-11T21:22:17.989Z,96021.70
2018-11-11T21:24:47.805Z,96020.00
2018-11-11T21:27:21.150Z,96013.33
2018-11-11T21:29:51.547Z,96015.01
2018-11-11T21:32:22.389Z,96012.99
2018-11-11T21:34:55.400Z,96020.53
2018-11-11T21:37:26.467Z,96029.03
2018-11-11T21:39:59.755Z,96025.34
2018-11-11T21:42:33.390Z,96023.48
2018-11-11T21:45:02.630Z,96036.63
2018-11-11T21:47:32.327Z,96020.23
2018-11-11T21:50:06.820Z,96027.20
2018-11-11T21:52:39.534Z,96031.05
2018-11-11T21:55:11.759Z,96029.05
2018-11-11T21:57:41.464Z,96031.25
2018-11-11T22:00:14.360Z,96035.50
2018-11-11T22:02:46.536Z,96048.00
2018-11-11T22:05:16.581Z,96037.80
2018-11-11T22:07:47.387Z,96044.20
2018-11-11T22:10:16.954Z,96050.86
2018-11-11T22:12:53.272Z,96058.34
2018-11-11T22:15:22.788Z,96067.11
2018-11-11T22:17:51.947Z,96059.98
2018-11-11T22:20:23.425Z,96069.38
2018-11-11T22:22:52.311Z,96068.11
2018-11-11T22:25:22.590Z,96065.29
2018-11-11T22:27:54.345Z,96079.28
2018-11-11T22:30:23.265Z,96079.14
2018-11-11T22:32:52.134Z,96086.59
2018-11-11T22:35:26.590Z,96088.50
2018-11-11T22:37:56.744Z,96091.44
2018-11-11T22:40:25.621Z,96093.81
2018-11-11T22:42:56.327Z,96107.41
2018-11-11T22:45:25.196Z,96101.33
2018-11-11T22:47:54.109Z,96107.19
2018-11-11T22:50:22.977Z,96098.42
2018-11-11T22:52:52.206Z,96110.53
2018-11-11T22:55:22.034Z,96111.91
2018-11-11T22:57:53.577Z,96115.41
2018-11-11T23:00:28.134Z,96117.83
2018-11-11T23:02:57.324Z,96112.20
2018-11-11T23:05:26.420Z,96109.56
2018-11-11T23:07:55.326Z,96105.83
2018-11-11T23:10:24.149Z,96107.42
2018-11-11T23:12:53.047Z,96119.50
2018-11-11T23:15:22.705Z,96120.30
2018-11-11T23:17:53.595Z,96126.21
2018-11-11T23:20:22.395Z,96121.40
2018-11-11T23:22:51.898Z,96129.46
2018-11-11T23:25:20.753Z,96124.92
2018-11-11T23:27:49.641Z,96127.33
2018-11-11T23:30:21.644Z,96127.84
2018-11-11T23:32:51.231Z,96124.89
2018-11-11T23:35:20.066Z,96146.84
2018-11-11T23:37:49.318Z,96142.84
2018-11-11T23:40:19.225Z,96146.34
2018-11-11T23:42:48.697Z,96137.19
2018-11-11T23:45:19.091Z,96147.09
2018-11-11T23:47:48.501Z,96142.00
2018-11-11T23:50:18.692Z,96152.93
2018-11-11T23:52:47.978Z,96154.80
2018-11-11T23:55:19.617Z,96162.04
2018-11-11T23:57:48.731Z,96157.25
